Time;durP1;ratioP1;P1;durP2;ratioP2;P2;SDS_P1;SDS_P2;PMS_P1;PMS_P2;Temp;Humidity;BMP_temperature;BMP_pressure;BME280_temperature;BME280_humidity;BME280_pressure;Samples;Min_cycle;Max_cycle;Signal;HPM_P1;HPM_P2
2023/01/06 00:02:08;;;;;;;0.70;0.70;;;;;;;11.40;100.00;100197.09;5090144;28;20198;-74
2023/01/06 00:04:35;;;;;;;0.80;0.80;;;;;;;11.40;100.00;100195.38;5090228;28;20572;-74
2023/01/06 00:07:01;;;;;;;0.80;0.80;;;;;;;11.39;100.00;100180.66;5088082;28;20191;-74
2023/01/06 00:09:28;;;;;;;4.20;4.00;;;;;;;11.38;100.00;100197.06;5090284;28;20275;-74
2023/01/06 00:11:55;;;;;;;0.70;0.70;;;;;;;11.40;100.00;100186.72;5090848;28;20667;-74
2023/01/06 00:14:22;;;;;;;0.85;0.85;;;;;;;11.31;100.00;100192.66;5090516;28;20206;-74
2023/01/06 00:16:48;;;;;;;0.70;0.70;;;;;;;11.36;100.00;100196.19;5090800;28;20201;-74
2023/01/06 00:19:17;;;;;;;1.00;1.00;;;;;;;11.27;100.00;100193.44;5055543;28;20209;-74
2023/01/06 00:21:43;;;;;;;0.70;0.70;;;;;;;11.16;100.00;100191.59;5094435;28;20213;-74
2023/01/06 00:24:11;;;;;;;0.80;0.80;;;;;;;11.16;100.00;100208.03;5093782;28;20597;-74
2023/01/06 00:26:38;;;;;;;0.80;0.80;;;;;;;11.18;100.00;100219.28;5093585;28;20237;-74
2023/01/06 00:29:04;;;;;;;0.60;0.60;;;;;;;11.16;100.00;100212.34;5094058;28;20205;-74
2023/01/06 00:31:31;;;;;;;0.60;0.60;;;;;;;10.99;100.00;100198.25;5057802;28;20652;-74
2023/01/06 00:33:58;;;;;;;0.70;0.70;;;;;;;10.86;100.00;100181.63;5093144;28;20676;-74
2023/01/06 00:36:26;;;;;;;0.60;0.60;;;;;;;11.09;100.00;100239.06;5093338;28;20202;-74
2023/01/06 00:38:53;;;;;;;1.10;1.10;;;;;;;11.08;100.00;100220.00;5094132;28;20201;-73
2023/01/06 00:44:04;;;;;;;0.80;0.80;;;;;;;11.06;100.00;100231.22;5093363;28;20590;-74
2023/01/06 00:46:33;;;;;;;0.93;0.93;;;;;;;11.06;100.00;100224.28;5092466;28;20213;-73
2023/01/06 00:49:01;;;;;;;1.35;1.35;;;;;;;10.98;100.00;100238.88;5093588;28;20206;-74
2023/01/06 00:51:29;;;;;;;0.77;0.77;;;;;;;10.93;100.00;100232.75;5093560;28;20209;-73
2023/01/06 00:53:56;;;;;;;0.60;0.60;;;;;;;10.94;100.00;100250.06;5093506;28;20209;-73
2023/01/06 00:56:22;;;;;;;1.70;1.60;;;;;;;10.93;100.00;100240.53;5093294;28;20201;-74
2023/01/06 00:58:49;;;;;;;0.70;0.70;;;;;;;10.88;100.00;100243.03;5092965;28;20191;-73
2023/01/06 01:01:16;;;;;;;0.70;0.70;;;;;;;10.90;100.00;100256.03;5093232;28;20209;-72
2023/01/06 01:03:43;;;;;;;0.68;0.68;;;;;;;10.88;100.00;100257.72;5092653;28;20254;-72
2023/01/06 01:06:10;;;;;;;0.60;0.60;;;;;;;10.80;100.00;100256.75;5092748;28;20229;-72
2023/01/06 01:08:38;;;;;;;0.60;0.60;;;;;;;10.75;100.00;100256.66;5092493;28;20218;-73
2023/01/06 01:11:06;;;;;;;0.90;0.90;;;;;;;10.73;100.00;100252.31;5092818;28;20206;-72
2023/01/06 01:13:34;;;;;;;0.65;0.65;;;;;;;10.70;100.00;100244.47;5092936;28;20622;-73
2023/01/06 01:16:04;;;;;;;2.00;1.88;;;;;;;10.26;100.00;100160.75;5092882;28;20202;-72
2023/01/06 01:18:31;;;;;;;3.08;2.78;;;;;;;10.74;100.00;100254.91;5092300;28;20550;-72
2023/01/06 01:20:57;;;;;;;0.80;0.80;;;;;;;10.64;100.00;100258.19;5092661;28;20190;-73
2023/01/06 01:23:24;;;;;;;0.60;0.60;;;;;;;10.58;100.00;100257.22;5092153;28;20202;-72
2023/01/06 01:25:56;;;;;;;0.70;0.70;;;;;;;10.65;100.00;100254.75;5092517;28;20247;-72
2023/01/06 01:28:23;;;;;;;0.60;0.60;;;;;;;10.53;100.00;100264.91;5092173;28;20212;-72
2023/01/06 01:30:49;;;;;;;0.95;0.95;;;;;;;10.48;100.00;100244.94;5092459;28;20213;-73
2023/01/06 01:33:16;;;;;;;0.60;0.60;;;;;;;10.52;100.00;100267.47;5091941;28;20198;-72
2023/01/06 01:35:43;;;;;;;0.63;0.63;;;;;;;10.57;100.00;100271.88;5091933;28;20202;-72
2023/01/06 01:38:10;;;;;;;0.65;0.65;;;;;;;10.50;100.00;100253.59;5091848;28;20225;-72
2023/01/06 01:40:36;;;;;;;6.03;3.75;;;;;;;10.57;100.00;100271.88;5092015;28;20614;-72
2023/01/06 01:43:06;;;;;;;0.70;0.70;;;;;;;10.52;100.00;100262.31;5056752;28;20209;-72
2023/01/06 01:45:33;;;;;;;0.50;0.50;;;;;;;9.95;100.00;100175.69;5092321;28;20225;-73
2023/01/06 01:48:03;;;;;;;0.70;0.70;;;;;;;10.51;100.00;100265.72;5091815;28;20213;-72
2023/01/06 01:50:36;;;;;;;0.90;0.90;;;;;;;10.51;100.00;100261.41;5092066;28;20198;-72
2023/01/06 01:53:06;;;;;;;0.90;0.90;;;;;;;10.49;100.00;100267.44;5092140;28;20732;-72
2023/01/06 01:55:35;;;;;;;0.70;0.70;;;;;;;10.47;100.00;100258.75;5057149;28;20198;-72
2023/01/06 01:58:09;;;;;;;0.70;0.70;;;;;;;10.45;100.00;100272.53;5073142;28;20197;-73
2023/01/06 02:00:37;;;;;;;0.70;0.70;;;;;;;10.41;100.00;100273.34;5092315;28;20201;-72
2023/01/06 02:03:05;;;;;;;0.60;0.60;;;;;;;10.22;100.00;100250.50;5057058;28;20210;-73
2023/01/06 02:05:34;;;;;;;0.80;0.80;;;;;;;10.30;100.00;100277.47;5092116;28;20575;-73
2023/01/06 02:08:06;;;;;;;0.70;0.70;;;;;;;10.31;100.00;100284.38;5091814;28;20194;-73
2023/01/06 02:10:33;;;;;;;2.70;1.80;;;;;;;10.14;100.00;100283.16;5091942;28;20194;-73
2023/01/06 02:13:00;;;;;;;0.80;0.80;;;;;;;10.21;100.00;100281.56;5091981;28;20191;-73
2023/01/06 02:15:30;;;;;;;0.70;0.70;;;;;;;10.16;100.00;100278.03;5091800;28;20201;-73
2023/01/06 02:18:13;;;;;;;0.70;0.70;;;;;;;10.05;100.00;100263.94;5091752;28;20194;-73
2023/01/06 02:21:07;;;;;;;0.70;0.70;;;;;;;10.07;100.00;100278.69;5072243;28;20208;-73
2023/01/06 02:24:10;;;;;;;0.77;0.77;;;;;;;10.01;100.00;100273.38;5088381;28;20201;-72
2023/01/06 02:27:12;;;;;;;0.60;0.60;;;;;;;9.98;100.00;100265.56;5091299;28;20611;-73
2023/01/06 02:30:05;;;;;;;0.77;0.77;;;;;;;10.01;100.00;100267.31;5056497;28;20202;-73
2023/01/06 02:32:52;;;;;;;0.70;0.70;;;;;;;10.01;100.00;100273.38;5056323;28;20201;-73
2023/01/06 02:35:32;;;;;;;0.70;0.70;;;;;;;9.95;100.00;100260.31;5055943;28;20699;-73
2023/01/06 02:38:06;;;;;;;0.88;0.88;;;;;;;10.05;100.00;100267.41;5091347;28;20733;-73
2023/01/06 02:40:48;;;;;;;0.70;0.70;;;;;;;10.05;100.00;100264.84;5091416;28;20201;-73
2023/01/06 02:43:25;;;;;;;0.70;0.70;;;;;;;10.02;100.00;100272.53;5089676;28;20213;-73
2023/01/06 02:46:01;;;;;;;0.90;0.90;;;;;;;9.84;100.00;100259.22;5087691;28;20258;-73
2023/01/06 02:48:43;;;;;;;0.70;0.70;;;;;;;9.91;100.00;100276.63;5091384;28;20227;-73
2023/01/06 02:51:16;;;;;;;0.80;0.80;;;;;;;9.94;100.00;100274.09;5091245;28;20654;-73
2023/01/06 02:53:52;;;;;;;9.23;4.75;;;;;;;9.73;100.00;100260.72;5091248;28;20203;-73
2023/01/06 02:56:22;;;;;;;1.27;1.27;;;;;;;9.78;100.00;100277.19;5091037;28;20672;-73
2023/01/06 02:58:55;;;;;;;0.60;0.60;;;;;;;9.77;100.00;100278.06;5088980;28;20219;-73
2023/01/06 03:01:27;;;;;;;0.80;0.80;;;;;;;9.73;100.00;100265.88;5091277;28;20210;-73
2023/01/06 03:04:01;;;;;;;0.98;0.98;;;;;;;9.75;100.00;100277.13;5090534;28;20186;-73
2023/01/06 03:06:31;;;;;;;0.80;0.80;;;;;;;9.75;100.00;100282.31;5091305;28;20234;-73
2023/01/06 03:09:00;;;;;;;0.70;0.70;;;;;;;9.59;100.00;100272.47;5091303;28;20714;-73
2023/01/06 03:11:31;;;;;;;1.23;1.23;;;;;;;9.65;100.00;100303.66;5091047;28;20585;-73
2023/01/06 03:14:03;;;;;;;0.70;0.70;;;;;;;9.48;100.00;100282.59;5090731;28;20198;-74
2023/01/06 03:16:30;;;;;;;0.60;0.60;;;;;;;9.66;100.00;100305.44;5091471;28;20202;-73
2023/01/06 03:18:59;;;;;;;0.80;0.80;;;;;;;9.45;100.00;100285.97;5055458;28;20213;-73
2023/01/06 03:21:30;;;;;;;0.70;0.70;;;;;;;9.62;100.00;100309.66;5091374;28;20213;-73
2023/01/06 03:23:57;;;;;;;1.40;1.40;;;;;;;9.49;100.00;100307.63;5090874;28;20209;-73
2023/01/06 03:26:25;;;;;;;0.68;0.68;;;;;;;9.43;100.00;100291.97;5091067;28;20248;-73
2023/01/06 03:28:51;;;;;;;0.70;0.70;;;;;;;9.60;100.00;100318.22;5090820;28;20612;-73
2023/01/06 03:31:25;;;;;;;0.60;0.60;;;;;;;9.36;100.00;100290.94;5091124;28;20209;-73
2023/01/06 03:34:02;;;;;;;0.60;0.60;;;;;;;9.63;100.00;100313.97;5091119;28;20205;-73
2023/01/06 03:36:38;;;;;;;0.85;0.85;;;;;;;9.60;100.00;100331.16;5090774;28;20229;-73
2023/01/06 03:39:14;;;;;;;0.70;0.70;;;;;;;9.60;100.00;100318.22;5090986;28;20210;-73
2023/01/06 03:44:41;;;;;;;0.70;0.70;;;;;;;9.44;100.00;100304.06;5087973;28;20197;-73
2023/01/06 03:47:16;;;;;;;0.70;0.70;;;;;;;9.52;100.00;100317.19;5091030;28;20222;-73
2023/01/06 03:49:52;;;;;;;0.70;0.70;;;;;;;9.54;100.00;100321.56;5090830;28;20197;-73
2023/01/06 03:52:26;;;;;;;1.15;1.15;;;;;;;9.57;100.00;100325.91;5090673;28;20223;-73
2023/01/06 03:55:00;;;;;;;0.70;0.70;;;;;;;9.59;100.00;100342.38;5091985;28;20663;-72
2023/01/06 03:57:31;;;;;;;0.60;0.60;;;;;;;9.55;100.00;100348.31;5094007;28;20205;-73
2023/01/06 04:00:02;;;;;;;0.70;0.70;;;;;;;9.50;100.00;100331.78;5094484;28;20233;-73
2023/01/06 04:02:30;;;;;;;0.70;0.70;;;;;;;9.40;100.00;100339.34;5094796;28;20202;-72
2023/01/06 04:05:09;;;;;;;0.80;0.80;;;;;;;9.35;100.00;100330.59;5094590;28;20222;-72
2023/01/06 04:07:37;;;;;;;0.70;0.70;;;;;;;9.33;100.00;100337.47;5094267;28;20233;-73
2023/01/06 04:10:04;;;;;;;1.02;1.02;;;;;;;9.30;100.00;100347.75;5094703;28;20198;-75
2023/01/06 04:15:17;;;;;;;1.00;1.00;;;;;;;9.36;100.00;100358.22;5093680;28;20209;-73
2023/01/06 04:17:45;;;;;;;1.00;1.00;;;;;;;9.32;100.00;100353.81;5094379;28;20279;-73
2023/01/06 04:20:15;;;;;;;3.20;2.58;;;;;;;9.36;100.00;100352.16;5093507;28;20205;-73
2023/01/06 04:22:42;;;;;;;0.70;0.70;;;;;;;9.36;100.00;100353.06;5094368;28;20205;-73
2023/01/06 04:25:09;;;;;;;0.70;0.70;;;;;;;9.43;100.00;100360.13;5093296;28;20205;-73
2023/01/06 04:27:36;;;;;;;0.70;0.70;;;;;;;9.49;100.00;100369.72;5094190;28;20235;-73
2023/01/06 04:30:04;;;;;;;0.60;0.60;;;;;;;9.51;100.00;100369.78;5074940;28;20210;-72
2023/01/06 04:32:31;;;;;;;0.70;0.70;;;;;;;9.50;100.00;100371.50;5093489;28;20198;-72
2023/01/06 04:34:57;;;;;;;0.60;0.60;;;;;;;9.50;100.00;100376.66;5093886;28;20202;-73
2023/01/06 04:37:26;;;;;;;0.70;0.70;;;;;;;9.54;100.00;100377.63;5093132;28;20194;-73
2023/01/06 04:39:52;;;;;;;0.70;0.70;;;;;;;9.54;100.00;100393.16;5093280;28;20190;-72
2023/01/06 04:42:19;;;;;;;0.60;0.60;;;;;;;9.55;100.00;100384.56;5093773;28;20194;-72
2023/01/06 04:44:46;;;;;;;0.60;0.60;;;;;;;9.62;100.00;100401.97;5093658;28;20202;-73
2023/01/06 04:47:13;;;;;;;0.70;0.70;;;;;;;9.52;100.00;100400.00;5093118;28;20222;-72
2023/01/06 04:49:39;;;;;;;0.60;0.60;;;;;;;9.48;100.00;100400.78;5093565;28;20634;-73
2023/01/06 04:52:07;;;;;;;0.70;0.70;;;;;;;9.42;100.00;100410.13;5058649;28;20633;-72
2023/01/06 04:54:35;;;;;;;0.80;0.80;;;;;;;9.31;100.00;100384.84;5093759;28;20225;-73
2023/01/06 04:57:03;;;;;;;0.60;0.60;;;;;;;9.36;100.00;100407.41;5074490;28;20225;-73
2023/01/06 04:59:30;;;;;;;0.65;0.65;;;;;;;9.22;100.00;100394.94;5092952;28;20221;-72
2023/01/06 05:01:56;;;;;;;0.80;0.80;;;;;;;9.23;100.00;100400.19;5093263;28;20202;-73
2023/01/06 05:04:23;;;;;;;0.70;0.70;;;;;;;9.27;100.00;100409.75;5093323;28;20202;-72
2023/01/06 05:06:50;;;;;;;0.80;0.80;;;;;;;9.00;100.00;100383.16;5092696;28;20314;-72
2023/01/06 05:09:17;;;;;;;0.60;0.60;;;;;;;9.28;100.00;100406.31;5092716;28;20190;-72
2023/01/06 05:11:45;;;;;;;0.60;0.60;;;;;;;9.11;100.00;100389.50;5093218;28;20194;-73
2023/01/06 05:14:12;;;;;;;0.70;0.70;;;;;;;9.26;100.00;100428.72;5073679;28;20207;-72
2023/01/06 05:16:38;;;;;;;0.70;0.70;;;;;;;9.30;100.00;100425.38;5093352;28;20275;-72
2023/01/06 05:19:05;;;;;;;0.80;0.80;;;;;;;9.12;100.00;100404.19;5057150;28;20644;-73
2023/01/06 05:21:32;;;;;;;0.85;0.85;;;;;;;9.32;100.00;100431.44;5073127;28;20211;-73
2023/01/06 05:23:59;;;;;;;0.70;0.70;;;;;;;9.35;100.00;100436.69;5078419;28;20201;-73
2023/01/06 05:26:27;;;;;;;0.70;0.70;;;;;;;9.37;100.00;100435.03;5092521;28;20666;-73
2023/01/06 05:28:56;;;;;;;0.90;0.90;;;;;;;9.44;100.00;100434.34;5093012;28;20260;-73
2023/01/06 05:31:23;;;;;;;0.70;0.70;;;;;;;9.40;100.00;100442.88;5093020;28;20205;-74
2023/01/06 05:33:50;;;;;;;0.60;0.60;;;;;;;9.36;100.00;100441.03;5055310;28;20733;-73
2023/01/06 05:36:18;;;;;;;0.70;0.70;;;;;;;9.44;100.00;100436.06;5088281;28;20209;-73
2023/01/06 05:38:45;;;;;;;0.70;0.70;;;;;;;9.42;100.00;100446.34;5088542;28;20202;-73
2023/01/06 05:41:12;;;;;;;0.60;0.60;;;;;;;9.23;100.00;100407.94;5092176;28;20198;-74
2023/01/06 05:43:39;;;;;;;1.00;1.00;;;;;;;9.33;100.00;100425.44;5091798;28;20194;-74
2023/01/06 05:46:09;;;;;;;0.95;0.95;;;;;;;9.31;100.00;100432.25;5072265;28;20647;-74
2023/01/06 05:48:37;;;;;;;1.77;1.73;;;;;;;9.41;100.00;100449.81;5088314;28;20603;-76
2023/01/06 05:51:05;;;;;;;0.60;0.60;;;;;;;9.51;100.00;100452.59;5092470;28;20217;-74
2023/01/06 05:53:32;;;;;;;0.60;0.60;;;;;;;9.36;100.00;100441.03;5092241;28;20590;-74
2023/01/06 05:56:00;;;;;;;0.60;0.60;;;;;;;9.86;100.00;100433.63;5092155;28;20708;-74
2023/01/06 05:58:28;;;;;;;0.70;0.70;;;;;;;9.44;100.00;100443.81;5092301;28;20661;-73
2023/01/06 06:00:54;;;;;;;0.70;0.70;;;;;;;9.36;100.00;100441.03;5092280;28;20194;-73
2023/01/06 06:03:22;;;;;;;0.63;0.63;;;;;;;9.37;100.00;100442.78;5088944;28;20194;-73
2023/01/06 06:05:49;;;;;;;0.60;0.60;;;;;;;9.37;100.00;100437.63;5090004;28;20236;-74
2023/01/06 06:08:16;;;;;;;0.80;0.80;;;;;;;9.42;100.00;100441.19;5092017;28;20209;-75
2023/01/06 06:10:43;;;;;;;0.85;0.85;;;;;;;9.41;100.00;100436.88;5087080;28;20217;-74
2023/01/06 06:13:10;;;;;;;0.50;0.50;;;;;;;9.43;100.00;100448.13;5090781;28;20680;-73
2023/01/06 06:15:37;;;;;;;0.70;0.70;;;;;;;9.41;100.00;100462.75;5089092;28;20193;-73
2023/01/06 06:18:04;;;;;;;0.60;0.60;;;;;;;9.24;100.00;100439.84;5053683;28;20272;-74
2023/01/06 06:20:32;;;;;;;0.77;0.77;;;;;;;9.30;100.00;100450.34;5091214;28;20205;-77
2023/01/06 06:22:59;;;;;;;0.70;0.70;;;;;;;9.29;100.00;100470.19;5068730;28;20211;-74
2023/01/06 06:25:25;;;;;;;0.70;0.70;;;;;;;9.29;100.00;100465.00;5090991;28;20197;-74
2023/01/06 06:27:57;;;;;;;0.77;0.77;;;;;;;9.31;100.00;100465.06;5071797;28;20221;-73
2023/01/06 06:30:24;;;;;;;0.70;0.70;;;;;;;9.36;100.00;100482.44;5053704;28;20230;-73
2023/01/06 06:32:51;;;;;;;0.80;0.80;;;;;;;9.18;100.00;100450.03;5090199;28;20207;-73
2023/01/06 06:35:18;;;;;;;0.60;0.60;;;;;;;9.24;100.00;100464.00;5087839;28;20615;-75
2023/01/06 06:37:46;;;;;;;0.52;0.52;;;;;;;9.38;100.00;100485.94;5089542;28;20202;-82
2023/01/06 06:40:12;;;;;;;1.08;1.08;;;;;;;9.36;100.00;100471.22;5090857;28;20757;-75
2023/01/06 06:42:39;;;;;;;0.90;0.90;;;;;;;9.49;100.00;100485.34;5089085;28;20692;-73
2023/01/06 06:45:07;;;;;;;0.80;0.80;;;;;;;9.46;100.00;100484.44;5082413;28;20299;-74
2023/01/06 06:47:34;;;;;;;0.60;0.60;;;;;;;9.51;100.00;100496.59;5090579;28;20226;-73
2023/01/06 06:50:01;;;;;;;0.70;0.70;;;;;;;9.54;100.00;100507.03;5085232;28;20230;-74
2023/01/06 06:52:27;;;;;;;0.60;0.60;;;;;;;9.36;100.00;100479.84;5085638;28;20202;-73
2023/01/06 06:54:55;;;;;;;0.60;0.60;;;;;;;9.58;100.00;100521.81;5090434;28;20209;-74
2023/01/06 06:57:22;;;;;;;4.57;1.17;;;;;;;9.54;100.00;100525.16;5070862;28;20251;-77
2023/01/06 06:59:49;;;;;;;0.70;0.70;;;;;;;9.63;100.00;100525.41;5096573;28;20205;-76
2023/01/06 07:02:16;;;;;;;0.70;0.70;;;;;;;9.62;100.00;100532.31;5089603;28;20206;-74
2023/01/06 07:04:43;;;;;;;0.60;0.60;;;;;;;9.69;100.00;100538.50;5068498;28;20225;-74
2023/01/06 07:07:09;;;;;;;0.60;0.60;;;;;;;9.67;100.00;100550.53;5085799;28;20237;-74
2023/01/06 07:09:36;;;;;;;0.60;0.60;;;;;;;9.58;100.00;100527.88;5089879;28;20684;-73
2023/01/06 07:12:05;;;;;;;0.80;0.80;;;;;;;9.78;100.00;100533.53;5089562;28;20198;-74
2023/01/06 07:14:32;;;;;;;0.77;0.77;;;;;;;9.70;100.00;100540.28;5079469;28;20194;-75
2023/01/06 07:17:00;;;;;;;0.80;0.80;;;;;;;9.75;100.00;100544.72;5078372;28;20202;-74
2023/01/06 07:19:28;;;;;;;0.60;0.60;;;;;;;9.76;100.00;100555.94;5054726;28;20237;-73
2023/01/06 07:21:54;;;;;;;0.85;0.85;;;;;;;9.76;100.00;100558.53;5087276;28;20289;-74
2023/01/06 07:24:21;;;;;;;0.65;0.65;;;;;;;9.57;100.00;100520.06;5083669;28;20202;-73
2023/01/06 07:26:48;;;;;;;0.85;0.85;;;;;;;9.86;100.00;100564.00;5089690;28;20221;-73
2023/01/06 07:29:16;;;;;;;0.60;0.60;;;;;;;9.94;100.00;100567.66;5091923;28;20198;-74
2023/01/06 07:31:43;;;;;;;0.70;0.70;;;;;;;9.98;100.00;100578.97;5092891;28;20190;-73
2023/01/06 07:34:10;;;;;;;0.60;0.60;;;;;;;10.01;100.00;100589.41;5094804;28;20202;-73
2023/01/06 07:36:36;;;;;;;0.63;0.63;;;;;;;10.06;100.00;100589.53;5083584;28;20209;-74
2023/01/06 07:39:03;;;;;;;0.85;0.85;;;;;;;10.09;100.00;100597.38;5080695;28;20219;-75
2023/01/06 07:41:31;;;;;;;0.65;0.65;;;;;;;10.11;100.00;100591.38;5059112;28;20199;-75
2023/01/06 07:43:58;;;;;;;0.70;0.70;;;;;;;10.15;100.00;100606.22;5083419;28;20190;-75
2023/01/06 07:46:26;;;;;;;0.80;0.80;;;;;;;10.01;100.00;100584.22;5088588;28;20198;-76
2023/01/06 07:48:52;;;;;;;0.70;0.70;;;;;;;10.15;100.00;100611.41;5092530;28;20213;-77
2023/01/06 07:51:19;;;;;;;0.60;0.60;;;;;;;10.27;100.00;100619.44;5073675;28;20604;-75
2023/01/06 07:53:46;;;;;;;0.80;0.80;;;;;;;10.28;100.00;100621.22;5084163;28;20276;-75
2023/01/06 07:56:13;;;;;;;0.60;0.60;;;;;;;10.33;100.00;100616.16;5057031;28;20202;-74
2023/01/06 07:58:40;;;;;;;0.70;0.70;;;;;;;10.37;100.00;100624.06;5086752;28;20195;-75
2023/01/06 08:01:07;;;;;;;0.60;0.60;;;;;;;10.44;100.00;100617.28;5091664;28;20209;-73
2023/01/06 08:03:36;;;;;;;0.65;0.65;;;;;;;10.51;100.00;100610.53;5093119;28;20220;-74
2023/01/06 08:06:06;;;;;;;0.60;0.60;;;;;;;10.51;100.00;100602.75;5094314;28;20230;-74
2023/01/06 08:08:36;;;;;;;0.60;0.60;;;;;;;10.59;100.00;100602.09;5093912;28;20302;-74
2023/01/06 08:11:03;;;;;;;0.52;0.52;;;;;;;10.60;100.00;100609.03;5094633;28;20190;-74
2023/01/06 08:13:30;;;;;;;0.60;0.60;;;;;;;10.67;100.00;100610.03;5094976;28;20205;-79
2023/01/06 08:15:56;;;;;;;0.73;0.73;;;;;;;10.69;100.00;100624.81;5094484;28;20202;-73
2023/01/06 08:18:23;;;;;;;0.60;0.60;;;;;;;10.73;100.00;100612.78;5093317;28;20307;-74
2023/01/06 08:20:51;;;;;;;0.60;0.60;;;;;;;10.78;100.00;100631.91;5093471;28;20637;-75
2023/01/06 08:23:18;;;;;;;1.23;1.23;;;;;;;10.81;100.00;100626.78;5093628;28;20689;-73
2023/01/06 08:25:45;;;;;;;0.80;0.80;;;;;;;10.75;100.00;100622.34;5093988;28;20194;-74
2023/01/06 08:28:12;;;;;;;0.60;0.60;;;;;;;10.93;100.00;100645.22;5093271;28;20283;-75
2023/01/06 08:30:40;;;;;;;0.60;0.60;;;;;;;10.94;100.00;100636.63;5093538;28;20191;-75
2023/01/06 08:33:07;;;;;;;0.60;0.60;;;;;;;11.03;100.00;100647.19;5090748;28;20247;-74
2023/01/06 08:35:34;;;;;;;1.08;1.08;;;;;;;11.07;100.00;100637.75;5087742;28;20664;-72
2023/01/06 08:38:02;;;;;;;0.60;0.60;;;;;;;11.07;100.00;100637.75;5093738;28;20587;-76
2023/01/06 08:40:28;;;;;;;0.60;0.60;;;;;;;11.23;100.00;100665.81;5092996;28;20206;-76
2023/01/06 08:42:55;;;;;;;1.02;1.02;;;;;;;11.37;100.00;100657.47;5089635;28;20256;-75
2023/01/06 08:45:22;;;;;;;1.77;1.67;;;;;;;11.12;98.99;100637.03;5087729;28;20205;-75
2023/01/06 08:47:49;;;;;;;0.70;0.70;;;;;;;11.24;98.46;100667.53;5092545;28;20218;-75
2023/01/06 08:50:16;;;;;;;0.65;0.65;;;;;;;11.21;98.84;100663.16;5079208;28;20211;-77
2023/01/06 08:52:42;;;;;;;0.60;0.60;;;;;;;11.27;98.49;100655.50;5091061;28;20206;-77
2023/01/06 08:55:11;;;;;;;0.70;0.70;;;;;;;11.28;98.29;100649.47;5092256;28;20259;-77
2023/01/06 08:57:37;;;;;;;0.60;0.60;;;;;;;11.42;98.28;100655.81;5093068;28;20201;-76
2023/01/06 09:00:05;;;;;;;0.70;0.70;;;;;;;11.45;97.81;100663.66;5084111;28;20350;-76
2023/01/06 09:02:32;;;;;;;0.70;0.70;;;;;;;11.44;97.12;100656.75;5093035;28;20206;-76
2023/01/06 09:04:59;;;;;;;0.98;0.98;;;;;;;11.49;95.93;100663.72;5093273;28;20237;-77
2023/01/06 09:07:26;;;;;;;0.60;0.60;;;;;;;11.44;95.13;100651.56;5092408;28;20230;-75
2023/01/06 09:09:53;;;;;;;1.25;1.25;;;;;;;11.51;95.57;100639.56;5085576;28;20609;-78
2023/01/06 09:12:21;;;;;;;0.70;0.70;;;;;;;11.60;94.04;100659.63;5071812;28;20198;-78
2023/01/06 09:14:48;;;;;;;0.65;0.65;;;;;;;11.57;93.05;100641.41;5092868;28;20206;-76
2023/01/06 09:17:14;;;;;;;1.00;1.00;;;;;;;11.60;93.05;100647.53;5093335;28;20206;-75
2023/01/06 09:19:41;;;;;;;0.50;0.50;;;;;;;11.58;92.07;100659.63;5058141;28;20199;-76
2023/01/06 09:22:08;;;;;;;0.60;0.60;;;;;;;11.61;92.16;100648.41;5076887;28;20198;-79
2023/01/06 09:24:35;;;;;;;0.70;0.70;;;;;;;11.73;92.05;100661.69;5098820;28;20202;-79
2023/01/06 09:27:02;;;;;;;1.05;1.05;;;;;;;11.78;90.77;100652.22;5090258;28;20202;-76
2023/01/06 09:29:30;;;;;;;0.80;0.80;;;;;;;11.63;90.43;100626.81;5088708;28;20207;-78
2023/01/06 09:31:57;;;;;;;0.70;0.70;;;;;;;11.73;89.64;100664.28;5108261;28;20645;-75
2023/01/06 09:34:23;;;;;;;0.60;0.60;;;;;;;11.77;90.85;100655.69;5081008;28;20637;-77
2023/01/06 09:36:50;;;;;;;0.60;0.60;;;;;;;11.80;88.46;100645.38;5077835;28;20194;-76
2023/01/06 09:39:17;;;;;;;0.60;0.60;;;;;;;11.83;87.72;100661.88;5082206;28;20199;-76
2023/01/06 09:42:01;;;;;;;0.60;0.60;;;;;;;11.90;87.55;100639.50;5094699;28;20201;-75
2023/01/06 09:44:32;;;;;;;0.60;0.60;;;;;;;11.85;86.53;100647.19;5099294;28;20198;-76
2023/01/06 09:47:01;;;;;;;0.60;0.60;;;;;;;11.89;86.41;100636.00;5097194;28;20204;-76
2023/01/06 09:49:36;;;;;;;0.60;0.60;;;;;;;11.94;86.39;100636.09;5100927;28;20205;-79
2023/01/06 09:52:07;;;;;;;0.60;0.60;;;;;;;11.91;85.41;100643.84;5096758;28;20197;-77
2023/01/06 09:54:39;;;;;;;0.60;0.60;;;;;;;11.72;86.27;100608.84;5111966;28;20300;-76
2023/01/06 09:57:17;;;;;;;0.80;0.80;;;;;;;11.86;85.30;100641.16;5112111;28;20209;-76
2023/01/06 09:59:52;;;;;;;1.77;1.67;;;;;;;11.94;84.86;100636.09;5099337;28;20653;-76
2023/01/06 10:02:24;;;;;;;0.80;0.80;;;;;;;11.89;85.23;100656.78;5091987;28;20197;-76
2023/01/06 10:04:51;;;;;;;1.00;0.98;;;;;;;11.93;84.12;100650.81;5091369;28;20230;-76
2023/01/06 10:07:27;;;;;;;0.70;0.70;;;;;;;12.07;84.27;100640.66;5091442;28;20206;-76
2023/01/06 10:10:05;;;;;;;0.73;0.73;;;;;;;12.14;83.97;100639.03;5091445;28;20350;-76
2023/01/06 10:12:45;;;;;;;0.60;0.60;;;;;;;11.83;83.98;100575.28;5111442;28;20206;-76
2023/01/06 10:15:20;;;;;;;1.73;1.70;;;;;;;12.35;81.95;100642.88;5100157;28;20205;-76
2023/01/06 10:18:04;;;;;;;0.57;0.57;;;;;;;12.32;81.56;100648.03;5092767;28;20207;-76
2023/01/06 10:20:57;;;;;;;0.60;0.60;;;;;;;11.88;80.15;100565.81;5083568;28;20213;-77
2023/01/06 10:23:54;;;;;;;0.60;0.60;;;;;;;12.28;80.92;100646.22;5087170;28;20202;-77
2023/01/06 10:26:28;;;;;;;0.50;0.50;;;;;;;11.79;81.54;100544.88;5072476;28;20653;-75
2023/01/06 10:29:01;;;;;;;0.60;0.60;;;;;;;12.26;78.78;100631.47;5100609;28;20662;-75
2023/01/06 10:31:34;;;;;;;0.60;0.60;;;;;;;12.36;78.42;100626.44;5095048;28;20205;-74
2023/01/06 10:34:02;;;;;;;0.60;0.60;;;;;;;12.19;79.24;100596.69;5107011;28;20214;-74
2023/01/06 10:36:33;;;;;;;0.60;0.60;;;;;;;12.21;79.20;100601.91;5075104;28;20205;-74
2023/01/06 10:39:05;;;;;;;0.50;0.50;;;;;;;12.27;79.41;100612.44;5098104;28;20205;-75
2023/01/06 10:41:43;;;;;;;0.52;0.52;;;;;;;12.38;79.97;100610.84;5108161;28;20194;-78
2023/01/06 10:44:11;;;;;;;1.00;1.00;;;;;;;12.41;79.11;100614.38;5087799;28;20209;-74
2023/01/06 10:46:44;;;;;;;0.70;0.70;;;;;;;12.40;78.90;100610.03;5068425;28;20285;-75
2023/01/06 10:49:15;;;;;;;0.60;0.60;;;;;;;12.28;77.64;100595.94;5089793;28;20229;-77
2023/01/06 10:51:47;;;;;;;0.60;0.60;;;;;;;12.26;78.11;100598.53;5091162;28;20224;-75
2023/01/06 10:54:18;;;;;;;0.57;0.57;;;;;;;12.38;76.59;100598.72;5090370;28;20232;-75
2023/01/06 10:56:49;;;;;;;0.60;0.60;;;;;;;12.15;76.95;100548.09;5089361;28;20202;-75
2023/01/06 10:59:16;;;;;;;0.60;0.60;;;;;;;12.38;75.91;100588.31;5088721;28;20206;-72
2023/01/06 11:01:55;;;;;;;0.70;0.70;;;;;;;12.46;75.46;100585.84;5088757;28;20210;-74
2023/01/06 11:04:23;;;;;;;0.60;0.60;;;;;;;12.31;75.91;100546.59;5085262;28;20201;-73
2023/01/06 11:06:52;;;;;;;0.80;0.80;;;;;;;12.57;75.92;100580.81;5090300;28;20247;-73
2023/01/06 11:09:26;;;;;;;0.80;0.80;;;;;;;12.22;75.68;100536.06;5087435;28;20218;-74
2023/01/06 11:11:54;;;;;;;0.80;0.80;;;;;;;12.39;75.09;100587.47;5087809;28;20277;-75
2023/01/06 11:14:26;;;;;;;0.60;0.60;;;;;;;12.35;74.26;100564.88;5088347;28;20718;-75
2023/01/06 11:16:57;;;;;;;0.65;0.65;;;;;;;12.26;74.05;100546.53;5090073;28;20198;-75
2023/01/06 11:19:33;;;;;;;0.60;0.60;;;;;;;12.45;74.29;100562.44;5084874;28;20260;-74
2023/01/06 11:22:00;;;;;;;0.60;0.60;;;;;;;12.43;73.95;100583.19;5051695;28;20190;-74
2023/01/06 11:24:29;;;;;;;0.52;0.52;;;;;;;12.51;73.27;100580.72;5086892;28;20213;-74
2023/01/06 11:26:57;;;;;;;0.70;0.70;;;;;;;12.53;74.24;100584.22;5090372;28;20629;-74
2023/01/06 11:29:27;;;;;;;0.70;0.70;;;;;;;12.50;75.75;100581.56;5068098;28;20222;-75
2023/01/06 11:31:57;;;;;;;0.70;0.70;;;;;;;12.50;75.89;100579.84;5090523;28;20213;-74
2023/01/06 11:34:27;;;;;;;0.60;0.60;;;;;;;12.51;76.12;100570.31;5089327;28;20573;-75
2023/01/06 11:36:55;;;;;;;0.70;0.70;;;;;;;12.51;75.10;100572.91;5088054;28;20194;-73
2023/01/06 11:39:27;;;;;;;1.45;1.45;;;;;;;12.61;75.79;100567.00;5087813;28;20259;-75
2023/01/06 11:41:56;;;;;;;1.33;1.33;;;;;;;12.64;74.72;100572.25;5068738;28;20198;-74